Time;durP1;ratioP1;P1;durP2;ratioP2;P2;SDS_P1;SDS_P2;PMS_P1;PMS_P2;Temp;Humidity;BMP_temperature;BMP_pressure;BME280_temperature;BME280_humidity;BME280_pressure;Samples;Min_cycle;Max_cycle;Signal;HPM_P1;HPM_P2
2022/12/17 13:06:49;;;;;;;62.63;35.60;;;1.00;99.90;;;;;;4991260;28;20065;-84
2022/12/17 13:09:18;;;;;;;61.17;34.13;;;1.00;99.90;;;;;;4972554;28;20047;-84
2022/12/17 13:12:03;;;;;;;75.10;37.95;;;1.00;99.90;;;;;;4980673;28;20629;-84
2022/12/17 13:14:47;;;;;;;64.82;36.83;;;1.00;99.90;;;;;;4971931;28;20054;-84
2022/12/17 13:17:16;;;;;;;64.70;34.67;;;1.00;99.90;;;;;;4983248;28;20046;-84
2022/12/17 13:19:56;;;;;;;66.50;38.38;;;1.00;99.90;;;;;;4972220;28;20042;-85
2022/12/17 13:22:22;;;;;;;65.63;35.92;;;1.00;99.90;;;;;;4976894;28;20085;-85
2022/12/17 13:24:54;;;;;;;64.15;35.63;;;1.00;99.90;;;;;;4996023;28;20077;-84
2022/12/17 13:27:37;;;;;;;63.35;36.53;;;0.90;99.90;;;;;;4989865;28;20057;-84
2022/12/17 13:30:17;;;;;;;66.35;36.67;;;1.00;99.90;;;;;;4990442;28;20517;-84
2022/12/17 13:33:20;;;;;;;65.65;37.08;;;1.00;99.90;;;;;;4988225;28;20054;-84
2022/12/17 13:36:01;;;;;;;63.78;36.53;;;1.00;99.90;;;;;;4982487;28;20057;-86
2022/12/17 13:38:50;;;;;;;63.75;35.63;;;1.00;99.90;;;;;;4989572;28;20047;-85
2022/12/17 13:41:25;;;;;;;66.03;37.08;;;1.00;99.90;;;;;;4993924;28;20074;-84
2022/12/17 13:43:55;;;;;;;60.90;35.13;;;1.00;99.90;;;;;;4988432;28;20050;-84
2022/12/17 13:46:39;;;;;;;61.20;34.13;;;1.10;99.90;;;;;;4973251;28;20070;-85
2022/12/17 13:49:14;;;;;;;65.15;37.67;;;1.00;99.90;;;;;;4988902;28;20042;-85
2022/12/17 13:51:40;;;;;;;63.70;35.70;;;1.00;99.90;;;;;;4985797;28;20414;-84
2022/12/17 13:54:18;;;;;;;65.00;37.30;;;1.00;99.90;;;;;;4992994;28;20038;-85
2022/12/17 13:56:44;;;;;;;64.32;35.95;;;1.00;99.90;;;;;;4982093;28;20518;-85
2022/12/17 13:59:20;;;;;;;64.97;36.40;;;1.00;99.90;;;;;;4983643;28;20143;-84
2022/12/17 14:01:48;;;;;;;62.97;35.58;;;1.00;99.90;;;;;;4982339;28;20407;-84
2022/12/17 14:04:24;;;;;;;61.60;35.50;;;1.00;99.90;;;;;;4985367;28;20548;-86
2022/12/17 14:06:52;;;;;;;64.70;35.95;;;1.00;99.90;;;;;;4976988;28;20062;-85
2022/12/17 14:09:21;;;;;;;62.22;33.70;;;1.00;99.90;;;;;;4981457;28;20058;-86
2022/12/17 14:14:33;;;;;;;64.57;36.05;;;1.00;99.90;;;;;;4987688;28;20050;-86
2022/12/17 14:16:59;;;;;;;63.17;35.40;;;1.00;99.90;;;;;;4985853;28;20104;-85
2022/12/17 14:19:26;;;;;;;60.75;35.08;;;1.00;99.90;;;;;;4988001;28;20129;-85
2022/12/17 14:21:52;;;;;;;60.80;35.22;;;1.10;99.90;;;;;;4985255;28;20090;-85
2022/12/17 14:24:22;;;;;;;60.47;34.75;;;1.00;99.90;;;;;;4988799;28;20491;-85
2022/12/17 14:26:54;;;;;;;61.72;34.72;;;1.00;99.90;;;;;;4982077;28;20042;-85
2022/12/17 14:29:29;;;;;;;63.28;35.25;;;1.00;99.90;;;;;;4978153;28;20088;-85
2022/12/17 14:32:00;;;;;;;59.08;35.55;;;1.00;99.90;;;;;;5001299;28;20055;-86
2022/12/17 14:34:26;;;;;;;64.85;36.10;;;1.00;99.90;;;;;;4998236;28;20042;-85
2022/12/17 14:36:58;;;;;;;61.30;34.95;;;1.00;99.90;;;;;;5000949;28;20083;-85
2022/12/17 14:39:23;;;;;;;63.33;35.42;;;1.00;99.90;;;;;;4983217;28;20035;-85
2022/12/17 14:44:37;;;;;;;60.78;34.47;;;1.00;99.90;;;;;;4991874;28;20129;-85
2022/12/17 14:47:18;;;;;;;64.80;36.03;;;0.90;99.90;;;;;;4988842;28;20050;-85
2022/12/17 14:50:04;;;;;;;63.83;34.47;;;0.90;99.90;;;;;;4989361;28;20050;-86
2022/12/17 14:52:40;;;;;;;61.50;34.40;;;0.90;99.90;;;;;;4993078;28;20046;-85
2022/12/17 14:55:21;;;;;;;60.67;33.70;;;0.90;99.90;;;;;;4988046;28;20069;-86
2022/12/17 14:57:48;;;;;;;64.38;34.05;;;0.90;99.90;;;;;;4985399;28;20555;-84
2022/12/17 15:00:14;;;;;;;66.07;34.53;;;0.90;99.90;;;;;;4994659;28;20038;-84
2022/12/17 15:02:42;;;;;;;61.60;33.10;;;0.90;99.90;;;;;;4991668;28;20507;-85
2022/12/17 15:05:16;;;;;;;62.17;33.17;;;0.90;99.90;;;;;;4994492;28;20053;-85
2022/12/17 15:07:42;;;;;;;63.88;34.80;;;0.80;99.90;;;;;;4992645;28;20058;-85
2022/12/17 15:10:15;;;;;;;65.13;34.05;;;0.80;99.90;;;;;;4987907;28;20051;-85
2022/12/17 15:12:42;;;;;;;62.63;33.47;;;0.80;99.90;;;;;;4992429;28;20043;-85
2022/12/17 15:15:14;;;;;;;65.75;33.47;;;0.70;99.90;;;;;;4987626;28;20057;-85
2022/12/17 15:17:40;;;;;;;66.93;34.25;;;0.70;99.90;;;;;;4996288;28;20109;-84
2022/12/17 15:20:11;;;;;;;62.80;33.17;;;0.70;99.90;;;;;;4992083;28;20050;-85
2022/12/17 15:22:37;;;;;;;61.97;33.30;;;0.60;99.90;;;;;;4992885;28;20042;-86
2022/12/17 15:25:03;;;;;;;66.72;34.70;;;0.60;99.90;;;;;;4996491;28;20367;-85
2022/12/17 15:27:29;;;;;;;63.92;33.58;;;0.60;99.90;;;;;;4996244;28;20046;-85
2022/12/17 15:29:54;;;;;;;63.95;33.17;;;0.60;99.90;;;;;;4991404;28;20043;-84
2022/12/17 15:32:22;;;;;;;65.05;34.35;;;0.60;99.90;;;;;;4989125;28;20046;-84
2022/12/17 15:34:49;;;;;;;64.68;34.20;;;0.50;99.90;;;;;;4982804;28;20030;-85
2022/12/17 15:37:15;;;;;;;65.05;32.53;;;0.50;99.90;;;;;;4995477;28;20125;-85
2022/12/17 15:39:41;;;;;;;64.97;33.78;;;0.50;99.90;;;;;;4991840;28;20585;-85
2022/12/17 15:44:53;;;;;;;66.25;33.17;;;0.50;99.90;;;;;;4995334;28;20046;-85
2022/12/17 15:47:18;;;;;;;63.38;32.83;;;0.50;99.90;;;;;;4991492;28;20050;-85
2022/12/17 15:49:44;;;;;;;63.05;32.15;;;0.40;99.90;;;;;;4992042;28;20117;-85
2022/12/17 15:52:13;;;;;;;68.82;34.40;;;0.40;99.90;;;;;;4995349;28;20042;-86
2022/12/17 15:55:05;;;;;;;62.40;32.97;;;0.40;99.90;;;;;;4990756;28;20051;-91
2022/12/17 15:57:31;;;;;;;62.55;32.13;;;0.40;99.90;;;;;;4971504;28;20410;-88
2022/12/17 15:59:56;;;;;;;66.15;33.58;;;0.40;99.90;;;;;;4983611;28;20051;-87
2022/12/17 16:02:22;;;;;;;62.03;32.05;;;0.40;99.90;;;;;;4990978;28;20058;-88
2022/12/17 16:04:47;;;;;;;60.05;31.67;;;0.50;99.90;;;;;;4974309;28;20070;-87
2022/12/17 16:07:13;;;;;;;62.92;32.63;;;0.50;99.90;;;;;;4992838;28;20100;-88
2022/12/17 16:09:38;;;;;;;68.25;33.90;;;0.40;99.90;;;;;;4994132;28;20050;-86
2022/12/17 16:12:04;;;;;;;68.00;33.88;;;0.40;99.90;;;;;;4991149;28;20450;-85
2022/12/17 16:14:30;;;;;;;74.65;35.55;;;0.40;99.90;;;;;;4990192;28;20050;-85
2022/12/17 16:16:55;;;;;;;73.38;35.83;;;0.40;99.90;;;;;;4974703;28;20053;-84
2022/12/17 16:19:21;;;;;;;77.97;35.75;;;0.30;99.90;;;;;;4974620;28;20051;-84
2022/12/17 16:21:47;;;;;;;72.20;34.67;;;0.30;99.90;;;;;;4981872;28;20426;-86
2022/12/17 16:24:12;;;;;;;73.93;36.33;;;0.20;99.90;;;;;;4975671;28;20046;-88
2022/12/17 16:26:38;;;;;;;78.68;35.67;;;0.20;99.90;;;;;;4981271;28;20039;-84
2022/12/17 16:29:05;;;;;;;76.60;36.25;;;0.20;99.90;;;;;;4990098;28;20082;-84
2022/12/17 16:31:30;;;;;;;78.25;35.78;;;0.10;99.90;;;;;;4990316;28;20129;-85
2022/12/17 16:33:56;;;;;;;79.82;35.92;;;0.10;99.90;;;;;;4980419;28;20093;-86
2022/12/17 16:36:22;;;;;;;77.03;35.00;;;0.10;99.90;;;;;;4986583;28;20057;-85
2022/12/17 16:38:51;;;;;;;75.55;35.20;;;0.00;99.90;;;;;;4997994;28;20043;-85
2022/12/17 16:41:17;;;;;;;76.57;35.15;;;0.00;99.90;;;;;;4982769;28;20046;-85
2022/12/17 16:43:43;;;;;;;77.93;36.55;;;0.00;99.90;;;;;;4992689;28;20057;-85
2022/12/17 16:46:28;;;;;;;81.55;36.45;;;-0.10;99.90;;;;;;4987807;28;20039;-85
2022/12/17 16:48:55;;;;;;;82.10;35.85;;;-0.10;99.90;;;;;;4989240;28;20141;-85
2022/12/17 16:51:23;;;;;;;78.28;35.15;;;-0.10;99.90;;;;;;4983055;28;20699;-84
2022/12/17 16:53:49;;;;;;;80.57;36.83;;;-0.10;99.90;;;;;;5006490;28;20043;-84
2022/12/17 16:56:21;;;;;;;79.60;37.03;;;-0.20;99.90;;;;;;4985000;28;20063;-85
2022/12/17 16:58:47;;;;;;;76.88;34.75;;;-0.20;99.90;;;;;;4984938;28;20059;-84
2022/12/17 17:01:21;;;;;;;80.03;35.13;;;-0.20;99.90;;;;;;4978726;28;20474;-84
2022/12/17 17:03:47;;;;;;;86.13;36.97;;;-0.20;99.90;;;;;;4973609;28;20046;-85
2022/12/17 17:06:13;;;;;;;84.03;37.45;;;-0.20;99.90;;;;;;4978161;28;20042;-85
2022/12/17 17:08:39;;;;;;;83.75;37.35;;;-0.20;99.90;;;;;;4986424;28;20525;-85
2022/12/17 17:11:14;;;;;;;83.63;37.42;;;-0.10;99.90;;;;;;4980157;28;20046;-86
2022/12/17 17:13:41;;;;;;;83.20;36.28;;;-0.10;99.90;;;;;;4984139;28;20117;-85
2022/12/17 17:16:08;;;;;;;78.45;35.60;;;-0.10;99.90;;;;;;4987485;28;20046;-86
2022/12/17 17:18:36;;;;;;;81.97;35.80;;;-0.10;99.90;;;;;;4990591;28;20084;-85
2022/12/17 17:21:27;;;;;;;80.72;36.25;;;0.00;99.90;;;;;;4992295;28;20149;-85
2022/12/17 17:23:55;;;;;;;69.10;33.20;;;0.00;99.90;;;;;;4986990;28;20053;-84
2022/12/17 17:26:21;;;;;;;78.28;34.85;;;0.00;99.90;;;;;;4978787;28;20079;-85
2022/12/17 17:28:47;;;;;;;67.55;32.55;;;0.10;99.90;;;;;;4985349;28;20074;-85
2022/12/17 17:31:14;;;;;;;72.40;33.67;;;0.00;99.90;;;;;;4988667;28;20074;-85
2022/12/17 17:33:43;;;;;;;75.53;34.10;;;0.10;99.90;;;;;;4979934;28;20490;-84
2022/12/17 17:36:11;;;;;;;75.50;34.60;;;0.10;99.90;;;;;;4988608;28;20050;-84
2022/12/17 17:38:39;;;;;;;74.60;33.95;;;0.10;99.90;;;;;;4985911;28;20068;-84
2022/12/17 17:41:06;;;;;;;74.47;33.17;;;0.10;99.90;;;;;;4985161;28;20050;-86
2022/12/17 17:43:32;;;;;;;72.85;34.22;;;0.10;99.90;;;;;;4991803;28;20061;-85
2022/12/17 17:46:06;;;;;;;73.50;34.22;;;0.10;99.90;;;;;;4989226;28;20046;-86
2022/12/17 17:48:33;;;;;;;67.78;33.30;;;0.10;99.90;;;;;;4982826;28;20073;-86
2022/12/17 17:51:05;;;;;;;64.93;31.45;;;0.10;99.90;;;;;;4990745;28;20486;-85
2022/12/17 17:53:30;;;;;;;70.53;33.97;;;0.10;99.90;;;;;;4983400;28;20055;-85
2022/12/17 17:56:04;;;;;;;69.53;32.28;;;0.00;99.90;;;;;;4987725;28;20513;-85
2022/12/17 17:58:30;;;;;;;71.40;32.55;;;0.00;99.90;;;;;;4987393;28;20101;-85
2022/12/17 18:00:56;;;;;;;72.13;33.13;;;0.00;99.90;;;;;;4976647;28;20038;-85
2022/12/17 18:03:22;;;;;;;75.05;33.22;;;0.00;99.90;;;;;;4984865;28;20501;-85
2022/12/17 18:05:47;;;;;;;73.68;32.60;;;0.00;99.90;;;;;;4985191;28;20046;-84
2022/12/17 18:08:13;;;;;;;70.82;33.03;;;0.00;99.90;;;;;;4988524;28;20053;-85
2022/12/17 18:10:38;;;;;;;76.75;35.28;;;-0.10;99.90;;;;;;4983729;28;20109;-85
2022/12/17 18:15:48;;;;;;;78.47;34.58;;;-0.10;99.90;;;;;;4983079;28;20054;-84
2022/12/17 18:18:14;;;;;;;70.97;34.28;;;-0.20;99.90;;;;;;4986052;28;20386;-85
2022/12/17 18:20:39;;;;;;;71.50;33.70;;;-0.20;99.90;;;;;;4989051;28;20061;-84
2022/12/17 18:23:05;;;;;;;65.00;30.73;;;-0.20;99.90;;;;;;4981479;28;20043;-85
2022/12/17 18:25:32;;;;;;;63.80;31.10;;;-0.20;99.90;;;;;;4984424;28;20074;-85
2022/12/17 18:27:58;;;;;;;63.95;30.38;;;-0.20;99.90;;;;;;4973846;28;20145;-84
2022/12/17 18:30:23;;;;;;;64.18;30.55;;;-0.20;99.90;;;;;;4987638;28;20103;-84
2022/12/17 18:32:49;;;;;;;70.68;32.70;;;-0.20;99.90;;;;;;4988465;28;20050;-84
2022/12/17 18:35:14;;;;;;;66.28;31.67;;;-0.20;99.90;;;;;;4990338;28;20042;-85
2022/12/17 18:37:40;;;;;;;63.72;29.17;;;-0.30;99.90;;;;;;4982097;28;20097;-85
2022/12/17 18:40:06;;;;;;;66.32;31.13;;;-0.30;99.90;;;;;;4981945;28;20074;-85
2022/12/17 18:45:16;;;;;;;69.75;31.20;;;-0.30;99.90;;;;;;4997288;28;20075;-83
2022/12/17 18:47:43;;;;;;;65.88;30.95;;;-0.20;99.90;;;;;;4992384;28;20494;-84
2022/12/17 18:50:09;;;;;;;63.70;31.30;;;-0.20;99.90;;;;;;4985576;28;20100;-84
2022/12/17 18:52:35;;;;;;;71.00;34.60;;;-0.20;99.90;;;;;;4975585;28;20051;-84
2022/12/17 18:55:01;;;;;;;74.22;33.20;;;-0.20;99.90;;;;;;4994673;28;20086;-84
2022/12/17 18:57:26;;;;;;;64.47;30.33;;;-0.20;99.90;;;;;;4977436;28;20055;-84
2022/12/17 18:59:52;;;;;;;71.40;33.88;;;-0.20;99.90;;;;;;4982970;28;20140;-84
2022/12/17 19:02:18;;;;;;;66.70;31.35;;;-0.20;99.90;;;;;;4974977;28;20043;-84
2022/12/17 19:04:43;;;;;;;64.88;31.30;;;-0.20;99.90;;;;;;4979081;28;20079;-83
2022/12/17 19:07:09;;;;;;;73.28;32.60;;;-0.20;99.90;;;;;;4989431;28;20141;-85
2022/12/17 19:09:38;;;;;;;67.05;31.05;;;-0.20;99.90;;;;;;4975286;28;20030;-85
2022/12/17 19:12:06;;;;;;;70.05;32.97;;;-0.20;99.90;;;;;;4984754;28;20094;-86
2022/12/17 19:14:32;;;;;;;68.95;33.65;;;-0.20;99.90;;;;;;4977688;28;20503;-85
2022/12/17 19:16:59;;;;;;;65.07;31.95;;;-0.30;99.90;;;;;;4998022;28;20119;-84
2022/12/17 19:19:25;;;;;;;72.32;34.47;;;-0.30;99.90;;;;;;4974495;28;20054;-84
2022/12/17 19:21:53;;;;;;;69.95;32.70;;;-0.30;99.90;;;;;;4973990;28;20101;-84
2022/12/17 19:24:20;;;;;;;66.75;32.40;;;-0.30;99.90;;;;;;4976383;28;20046;-83
2022/12/17 19:26:46;;;;;;;69.40;32.65;;;-0.30;99.90;;;;;;4974423;28;20461;-84
2022/12/17 19:29:14;;;;;;;68.78;32.70;;;-0.30;99.90;;;;;;4979786;28;20133;-84
2022/12/17 19:31:40;;;;;;;64.25;31.42;;;-0.30;99.90;;;;;;4975770;28;20043;-84
2022/12/17 19:34:09;;;;;;;63.22;32.22;;;-0.30;99.90;;;;;;4979388;28;20046;-83
2022/12/17 19:36:36;;;;;;;64.57;32.97;;;-0.30;99.90;;;;;;4979636;28;20051;-85
2022/12/17 19:39:05;;;;;;;64.65;32.85;;;-0.30;99.90;;;;;;4981556;28;20047;-85
2022/12/17 19:41:32;;;;;;;66.80;33.88;;;-0.30;99.90;;;;;;4986742;28;20047;-85
2022/12/17 19:44:10;;;;;;;63.92;31.65;;;-0.30;99.90;;;;;;4984005;28;20046;-85
2022/12/17 19:46:36;;;;;;;66.68;33.13;;;-0.30;99.90;;;;;;4979032;28;20050;-85
2022/12/17 19:49:03;;;;;;;62.47;32.22;;;-0.30;99.90;;;;;;4974714;28;20042;-85
2022/12/17 19:51:30;;;;;;;66.10;34.45;;;-0.30;99.90;;;;;;4984203;28;20137;-84
2022/12/17 19:53:56;;;;;;;61.75;32.90;;;-0.30;99.90;;;;;;5006176;28;20035;-85
2022/12/17 19:56:27;;;;;;;62.65;32.55;;;-0.30;99.90;;;;;;4978091;28;20050;-85
2022/12/17 19:58:55;;;;;;;67.88;36.08;;;-0.30;99.90;;;;;;4990712;28;20473;-85
2022/12/17 20:01:27;;;;;;;62.15;33.08;;;-0.30;99.90;;;;;;4989540;28;20057;-85
2022/12/17 20:03:54;;;;;;;63.08;34.78;;;-0.30;99.90;;;;;;4993070;28;20117;-85
2022/12/17 20:06:22;;;;;;;61.63;34.38;;;-0.30;99.90;;;;;;4985541;28;20058;-85
2022/12/17 20:08:48;;;;;;;62.63;33.30;;;-0.30;99.90;;;;;;4976352;28;20490;-85
2022/12/17 20:11:33;;;;;;;62.78;33.63;;;-0.30;99.90;;;;;;4977256;28;20043;-85
2022/12/17 20:14:02;;;;;;;62.53;33.95;;;-0.40;99.90;;;;;;4982273;28;20039;-85
2022/12/17 20:16:31;;;;;;;62.60;33.70;;;-0.40;99.90;;;;;;4990789;28;20106;-84
2022/12/17 20:19:00;;;;;;;63.97;35.28;;;-0.30;99.90;;;;;;4978242;28;20089;-84
2022/12/17 20:21:29;;;;;;;58.45;32.65;;;-0.30;99.90;;;;;;4986037;28;20046;-83
2022/12/17 20:23:55;;;;;;;66.10;36.75;;;-0.30;99.90;;;;;;4978627;28;20046;-84
2022/12/17 20:26:23;;;;;;;63.90;34.00;;;-0.30;99.90;;;;;;4977522;28;20053;-84
2022/12/17 20:28:49;;;;;;;60.38;33.78;;;-0.40;99.90;;;;;;4991173;28;20492;-84
2022/12/17 20:31:15;;;;;;;60.45;33.47;;;-0.40;99.90;;;;;;5001405;28;20125;-84
2022/12/17 20:33:40;;;;;;;61.58;33.85;;;-0.40;99.90;;;;;;4989550;28;20038;-85
2022/12/17 20:36:12;;;;;;;62.20;36.03;;;-0.40;99.90;;;;;;4977826;28;20047;-85
2022/12/17 20:38:38;;;;;;;64.63;36.13;;;-0.40;99.90;;;;;;4989427;28;20073;-85
2022/12/17 20:41:19;;;;;;;64.43;35.42;;;-0.40;99.90;;;;;;4979620;28;20502;-84
2022/12/17 20:43:45;;;;;;;67.22;37.33;;;-0.40;99.90;;;;;;4989807;28;20038;-84
2022/12/17 20:46:12;;;;;;;62.17;35.17;;;-0.40;99.90;;;;;;4975561;28;20043;-84
2022/12/17 20:48:39;;;;;;;60.25;34.80;;;-0.40;99.90;;;;;;4992120;28;20088;-84
2022/12/17 20:51:09;;;;;;;66.78;37.28;;;-0.40;99.90;;;;;;4993079;28;20063;-84
2022/12/17 20:53:35;;;;;;;65.57;36.67;;;-0.40;99.90;;;;;;4978256;28;20051;-84
2022/12/17 20:56:07;;;;;;;66.32;36.05;;;-0.40;99.90;;;;;;4982206;28;20045;-84
2022/12/17 20:58:33;;;;;;;72.30;39.10;;;-0.40;99.90;;;;;;4979679;28;20125;-84
2022/12/17 21:01:08;;;;;;;69.28;36.38;;;-0.40;99.90;;;;;;4992166;28;20054;-85
2022/12/17 21:03:34;;;;;;;64.82;35.67;;;-0.40;99.90;;;;;;4989699;28;20394;-85
2022/12/17 21:06:20;;;;;;;69.82;37.00;;;-0.40;99.90;;;;;;4984387;28;20112;-85
2022/12/17 21:08:47;;;;;;;71.53;37.55;;;-0.40;99.90;;;;;;4989845;28;20038;-85
2022/12/17 21:11:14;;;;;;;62.92;36.53;;;-0.40;99.90;;;;;;4986930;28;20042;-85
2022/12/17 21:13:40;;;;;;;66.97;35.92;;;-0.40;99.90;;;;;;4989520;28;20041;-85
2022/12/17 21:16:10;;;;;;;65.95;36.38;;;-0.40;99.90;;;;;;4985648;28;20054;-85
2022/12/17 21:18:36;;;;;;;72.18;38.53;;;-0.40;99.90;;;;;;4985048;28;20042;-84
2022/12/17 21:21:07;;;;;;;69.38;34.70;;;-0.50;99.90;;;;;;4983669;28;20060;-83
2022/12/17 21:23:34;;;;;;;69.97;36.42;;;-0.50;99.90;;;;;;4984415;28;20125;-83
2022/12/17 21:26:06;;;;;;;70.43;35.72;;;-0.50;99.90;;;;;;4976093;28;20050;-82
2022/12/17 21:28:33;;;;;;;69.63;36.63;;;-0.50;99.90;;;;;;4984695;28;20056;-83
2022/12/17 21:31:00;;;;;;;68.05;34.92;;;-0.60;99.90;;;;;;4993641;28;20050;-82
2022/12/17 21:33:25;;;;;;;69.43;36.60;;;-0.60;99.90;;;;;;4986111;28;20047;-82
2022/12/17 21:35:59;;;;;;;68.60;34.72;;;-0.60;99.90;;;;;;4973582;28;20043;-82
2022/12/17 21:38:25;;;;;;;70.88;35.92;;;-0.70;99.90;;;;;;4979348;28;20051;-83
2022/12/17 21:40:51;;;;;;;68.82;36.25;;;-0.80;99.90;;;;;;4992723;28;20042;-83
2022/12/17 21:43:16;;;;;;;69.80;36.28;;;-0.80;99.90;;;;;;4987739;28;20371;-83
2022/12/17 21:45:42;;;;;;;72.05;35.88;;;-0.80;99.90;;;;;;4979491;28;20050;-83
2022/12/17 21:48:09;;;;;;;69.22;36.55;;;-0.80;99.90;;;;;;4976468;28;20042;-83
2022/12/17 21:50:42;;;;;;;69.18;34.67;;;-0.80;99.90;;;;;;4992745;28;20081;-83
2022/12/17 21:53:09;;;;;;;67.72;35.60;;;-0.80;99.90;;;;;;4984539;28;20047;-83
2022/12/17 21:55:35;;;;;;;72.28;34.63;;;-0.80;99.90;;;;;;4972363;28;20053;-83
2022/12/17 21:58:01;;;;;;;68.70;35.28;;;-0.80;99.90;;;;;;4973165;28;20101;-81
2022/12/17 22:00:27;;;;;;;71.88;35.72;;;-0.80;99.90;;;;;;4991941;28;20058;-81
2022/12/17 22:02:53;;;;;;;72.60;36.80;;;-0.80;99.90;;;;;;4978267;28;20552;-81
2022/12/17 22:05:18;;;;;;;68.22;35.05;;;-0.80;99.90;;;;;;4989940;28;20038;-80
2022/12/17 22:07:44;;;;;;;67.93;35.03;;;-0.80;99.90;;;;;;4996425;28;20050;-81
2022/12/17 22:10:10;;;;;;;70.72;35.35;;;-0.70;99.90;;;;;;4983237;28;20039;-81
2022/12/17 22:15:20;;;;;;;68.20;34.13;;;-0.70;99.90;;;;;;4981869;28;20054;-81
2022/12/17 22:17:46;;;;;;;69.18;34.78;;;-0.70;99.90;;;;;;5012544;28;20485;-81
2022/12/17 22:20:15;;;;;;;70.20;33.92;;;-0.70;99.90;;;;;;5004208;28;20081;-80
2022/12/17 22:22:41;;;;;;;69.72;36.45;;;-0.70;99.90;;;;;;4983840;28;20039;-81
2022/12/17 22:25:08;;;;;;;71.78;34.38;;;-0.70;99.90;;;;;;4973028;28;20081;-81
2022/12/17 22:27:34;;;;;;;69.32;34.38;;;-0.80;99.90;;;;;;4973347;28;20478;-81
2022/12/17 22:32:58;;;;;;;72.68;34.40;;;-0.80;99.90;;;;;;4972862;28;20067;-81
2022/12/17 22:35:32;;;;;;;66.82;33.78;;;-0.90;99.90;;;;;;4972195;28;20516;-81
2022/12/17 22:37:57;;;;;;;70.22;33.03;;;-0.90;99.90;;;;;;4976985;28;20082;-81
2022/12/17 22:40:23;;;;;;;72.70;35.10;;;-0.80;99.90;;;;;;4972739;28;20141;-81
2022/12/17 22:45:36;;;;;;;68.13;33.50;;;-0.80;99.90;;;;;;4991372;28;20050;-81
2022/12/17 22:48:01;;;;;;;64.07;33.22;;;-0.80;99.90;;;;;;5004511;28;20102;-81
2022/12/17 22:50:27;;;;;;;70.20;33.47;;;-0.80;99.90;;;;;;5012346;28;20561;-81
2022/12/17 22:52:52;;;;;;;68.28;33.17;;;-0.90;99.90;;;;;;5005601;28;20044;-81
2022/12/17 22:55:18;;;;;;;73.88;34.70;;;-0.90;99.90;;;;;;4986258;28;20047;-80
2022/12/17 22:57:43;;;;;;;75.50;34.22;;;-0.90;99.90;;;;;;4972434;28;20051;-80
2022/12/17 23:00:20;;;;;;;71.90;33.90;;;-0.90;99.90;;;;;;4971523;28;20069;-81
2022/12/17 23:02:46;;;;;;;72.25;33.85;;;-0.90;99.90;;;;;;4974555;28;20039;-81
2022/12/17 23:05:12;;;;;;;65.43;32.53;;;-0.90;99.90;;;;;;4974390;28;20069;-81
2022/12/17 23:07:37;;;;;;;68.30;33.22;;;-0.90;99.90;;;;;;4989180;28;20113;-81
2022/12/17 23:10:04;;;;;;;64.45;32.30;;;-0.90;99.90;;;;;;4982162;28;20042;-81
2022/12/17 23:15:14;;;;;;;69.55;32.85;;;-0.90;99.90;;;;;;4971912;28;20486;-80
2022/12/17 23:17:39;;;;;;;64.60;32.85;;;-0.90;99.90;;;;;;4972623;28;20051;-81
2022/12/17 23:20:05;;;;;;;67.10;32.58;;;-0.90;99.90;;;;;;4971950;28;20050;-81
2022/12/17 23:22:31;;;;;;;67.53;30.77;;;-0.90;99.90;;;;;;4975856;28;20506;-81
2022/12/17 23:24:57;;;;;;;65.50;31.20;;;-0.90;99.90;;;;;;4979230;28;20073;-80
2022/12/17 23:27:22;;;;;;;68.03;33.03;;;-0.90;99.90;;;;;;4991164;28;20047;-80
2022/12/17 23:29:48;;;;;;;70.53;32.70;;;-0.90;99.90;;;;;;4976285;28;20074;-80
2022/12/17 23:32:13;;;;;;;66.20;31.73;;;-0.90;99.90;;;;;;4975516;28;20402;-81
2022/12/17 23:34:39;;;;;;;70.70;31.83;;;-0.90;99.90;;;;;;4975430;28;20451;-80
2022/12/17 23:37:04;;;;;;;72.60;32.20;;;-0.90;99.90;;;;;;4976125;28;20524;-81
2022/12/17 23:39:30;;;;;;;65.97;31.23;;;-0.90;99.90;;;;;;4980327;28;20100;-80
2022/12/17 23:41:56;;;;;;;67.13;31.70;;;-0.90;99.90;;;;;;4990025;28;20091;-81
2022/12/17 23:44:21;;;;;;;63.95;30.98;;;-0.90;99.90;;;;;;4975204;28;20054;-81
2022/12/17 23:46:47;;;;;;;68.93;31.33;;;-1.00;99.90;;;;;;4991933;28;20039;-81
2022/12/17 23:49:12;;;;;;;61.05;30.27;;;-1.00;99.90;;;;;;4990161;28;20122;-81
2022/12/17 23:51:38;;;;;;;63.58;30.48;;;-1.00;99.90;;;;;;4987304;28;20387;-80
2022/12/17 23:54:04;;;;;;;60.38;28.75;;;-1.10;99.90;;;;;;4975838;28;20050;-80
2022/12/17 23:56:29;;;;;;;63.53;29.92;;;-1.10;99.90;;;;;;4985358;28;20406;-81
2022/12/17 23:58:57;;;;;;;59.55;29.65;;;-1.20;99.90;;;;;;4991365;28;20133;-80
